Time;durP1;ratioP1;P1;durP2;ratioP2;P2;SDS_P1;SDS_P2;PMS_P1;PMS_P2;Temp;Humidity;BMP_temperature;BMP_pressure;BME280_temperature;BME280_humidity;BME280_pressure;Samples;Min_cycle;Max_cycle;Signal;HPM_P1;HPM_P2
2021/12/09 00:00:32;;;;;;;1.00;0.40;;;;;;;;;;4199151;28;20110;-41
2021/12/09 00:02:33;;;;;;;0.32;0.20;;;;;;;;;;4199452;28;20269;-41
2021/12/09 00:04:34;;;;;;;0.10;0.10;;;;;;;;;;4199099;28;20498;-42
2021/12/09 00:06:36;;;;;;;0.17;0.13;;;;;;;;;;4199419;28;20044;-41
2021/12/09 00:08:38;;;;;;;0.20;0.10;;;;;;;;;;4198794;28;20045;-39
2021/12/09 00:10:40;;;;;;;0.30;0.20;;;;;;;;;;4199041;28;20055;-41
2021/12/09 00:12:41;;;;;;;0.50;0.30;;;;;;;;;;4198832;28;20193;-42
2021/12/09 00:14:42;;;;;;;0.70;0.20;;;;;;;;;;4199291;28;20056;-41
2021/12/09 00:16:43;;;;;;;0.45;0.30;;;;;;;;;;4199220;28;20438;-42
2021/12/09 00:18:44;;;;;;;0.43;0.30;;;;;;;;;;4198754;28;20044;-42
2021/12/09 00:20:45;;;;;;;0.22;0.20;;;;;;;;;;4198922;28;20048;-41
2021/12/09 00:22:46;;;;;;;1.08;0.38;;;;;;;;;;4198625;28;20048;-41
2021/12/09 00:24:47;;;;;;;0.20;0.20;;;;;;;;;;4198841;28;20326;-42
2021/12/09 00:26:49;;;;;;;0.65;0.35;;;;;;;;;;4199044;28;20048;-41
2021/12/09 00:28:50;;;;;;;0.40;0.20;;;;;;;;;;4198588;28;20480;-39
2021/12/09 00:30:51;;;;;;;0.47;0.30;;;;;;;;;;4198754;28;20052;-43
2021/12/09 00:32:52;;;;;;;0.50;0.28;;;;;;;;;;4199042;28;20075;-40
2021/12/09 00:34:53;;;;;;;0.35;0.20;;;;;;;;;;4198685;28;20061;-42
2021/12/09 00:36:59;;;;;;;0.20;0.20;;;;;;;;;;4198585;28;20399;-41
2021/12/09 00:39:00;;;;;;;0.20;0.20;;;;;;;;;;4198288;28;20110;-41
2021/12/09 00:41:08;;;;;;;0.22;0.20;;;;;;;;;;4198531;28;20378;-41
2021/12/09 00:43:09;;;;;;;0.17;0.17;;;;;;;;;;4198618;28;20117;-42
2021/12/09 00:45:10;;;;;;;0.60;0.20;;;;;;;;;;4198603;28;20048;-42
2021/12/09 00:47:11;;;;;;;0.20;0.20;;;;;;;;;;4198509;28;20094;-42
2021/12/09 00:49:12;;;;;;;0.10;0.10;;;;;;;;;;4198553;28;20062;-41
2021/12/09 00:51:13;;;;;;;0.75;0.28;;;;;;;;;;4198545;28;20518;-40
2021/12/09 00:53:14;;;;;;;0.20;0.20;;;;;;;;;;4197789;28;20102;-37
2021/12/09 00:55:16;;;;;;;0.30;0.30;;;;;;;;;;4198318;28;20096;-41
2021/12/09 00:57:16;;;;;;;0.65;0.25;;;;;;;;;;4198456;28;20048;-40
2021/12/09 00:59:18;;;;;;;0.28;0.20;;;;;;;;;;4198156;28;20052;-40
2021/12/09 01:01:19;;;;;;;0.20;0.20;;;;;;;;;;4198130;28;20138;-43
2021/12/09 01:03:20;;;;;;;0.68;0.30;;;;;;;;;;4198011;28;20370;-41
2021/12/09 01:05:21;;;;;;;0.30;0.20;;;;;;;;;;4198147;28;20510;-41
2021/12/09 01:07:22;;;;;;;0.10;0.10;;;;;;;;;;4198292;28;20098;-42
2021/12/09 01:09:23;;;;;;;0.40;0.20;;;;;;;;;;4197588;28;20546;-41
2021/12/09 01:11:25;;;;;;;0.35;0.30;;;;;;;;;;4198176;28;20044;-41
2021/12/09 01:13:26;;;;;;;0.10;0.10;;;;;;;;;;4197950;28;20049;-40
2021/12/09 01:15:27;;;;;;;0.30;0.20;;;;;;;;;;4198073;28;20052;-40
2021/12/09 01:17:28;;;;;;;0.20;0.20;;;;;;;;;;4198209;28;20102;-40
2021/12/09 01:19:29;;;;;;;0.95;0.40;;;;;;;;;;4197860;28;20117;-41
2021/12/09 01:21:30;;;;;;;0.40;0.30;;;;;;;;;;4197558;28;20077;-41
2021/12/09 01:23:31;;;;;;;0.30;0.20;;;;;;;;;;4197566;28;20052;-41
2021/12/09 01:25:36;;;;;;;0.40;0.20;;;;;;;;;;4197573;28;20053;-42
2021/12/09 01:27:42;;;;;;;0.40;0.40;;;;;;;;;;4197700;28;20048;-41
2021/12/09 01:29:51;;;;;;;0.20;0.20;;;;;;;;;;4198008;28;20044;-41
2021/12/09 01:31:58;;;;;;;0.70;0.20;;;;;;;;;;4197785;28;20492;-41
2021/12/09 01:34:02;;;;;;;0.55;0.22;;;;;;;;;;4197646;28;20064;-42
2021/12/09 01:36:04;;;;;;;0.20;0.20;;;;;;;;;;4197704;28;20052;-41
2021/12/09 01:38:12;;;;;;;0.10;0.10;;;;;;;;;;4197187;28;20060;-41
2021/12/09 01:40:14;;;;;;;0.43;0.25;;;;;;;;;;4197566;28;20063;-41
2021/12/09 01:42:16;;;;;;;0.30;0.20;;;;;;;;;;4197549;28;20053;-41
2021/12/09 01:44:18;;;;;;;0.40;0.25;;;;;;;;;;4196812;28;20485;-39
2021/12/09 01:46:21;;;;;;;0.20;0.10;;;;;;;;;;4196987;28;20048;-42
2021/12/09 01:48:22;;;;;;;0.30;0.10;;;;;;;;;;4197351;28;20079;-42
2021/12/09 01:50:24;;;;;;;0.32;0.20;;;;;;;;;;4197723;28;20109;-42
2021/12/09 01:52:25;;;;;;;0.60;0.20;;;;;;;;;;4197318;28;20102;-41
2021/12/09 01:54:26;;;;;;;0.22;0.15;;;;;;;;;;4196955;28;20056;-41
2021/12/09 01:56:28;;;;;;;0.20;0.20;;;;;;;;;;4197440;28;20425;-41
2021/12/09 01:58:29;;;;;;;0.25;0.20;;;;;;;;;;4197283;28;20052;-42
2021/12/09 02:00:31;;;;;;;0.35;0.22;;;;;;;;;;4197408;28;20057;-42
2021/12/09 02:02:32;;;;;;;0.30;0.30;;;;;;;;;;4197275;28;20059;-41
2021/12/09 02:04:33;;;;;;;0.32;0.20;;;;;;;;;;4197514;28;20060;-42
2021/12/09 02:06:35;;;;;;;0.32;0.20;;;;;;;;;;4197664;28;20056;-40
2021/12/09 02:08:36;;;;;;;0.20;0.15;;;;;;;;;;4196964;28;20045;-41
2021/12/09 02:10:38;;;;;;;0.40;0.22;;;;;;;;;;4197526;28;20110;-41
2021/12/09 02:12:39;;;;;;;0.22;0.20;;;;;;;;;;4197182;28;20489;-41
2021/12/09 02:14:43;;;;;;;0.47;0.28;;;;;;;;;;4197298;28;20497;-42
2021/12/09 02:16:44;;;;;;;0.20;0.20;;;;;;;;;;4197299;28;20374;-40
2021/12/09 02:18:45;;;;;;;0.20;0.20;;;;;;;;;;4197110;28;20049;-41
2021/12/09 02:20:46;;;;;;;0.50;0.30;;;;;;;;;;4195852;28;20110;-41
2021/12/09 02:22:48;;;;;;;0.30;0.20;;;;;;;;;;4179418;28;20463;-42
2021/12/09 02:24:51;;;;;;;0.57;0.28;;;;;;;;;;4180528;28;20382;-41
2021/12/09 02:26:52;;;;;;;0.25;0.25;;;;;;;;;;4180576;28;20059;-42
2021/12/09 02:28:54;;;;;;;0.13;0.10;;;;;;;;;;4180416;28;20131;-41
2021/12/09 02:30:55;;;;;;;0.63;0.20;;;;;;;;;;4180530;28;20049;-41
2021/12/09 02:32:56;;;;;;;0.20;0.20;;;;;;;;;;4180435;28;20386;-38
2021/12/09 02:34:57;;;;;;;0.30;0.30;;;;;;;;;;4179257;28;20095;-40
2021/12/09 02:36:58;;;;;;;0.47;0.30;;;;;;;;;;4180763;28;20053;-41
2021/12/09 02:38:59;;;;;;;0.30;0.20;;;;;;;;;;4179861;28;20061;-41
2021/12/09 02:41:02;;;;;;;0.80;0.30;;;;;;;;;;4180506;28;20048;-40
2021/12/09 02:43:05;;;;;;;0.45;0.28;;;;;;;;;;4180248;28;20090;-42
2021/12/09 02:45:07;;;;;;;0.25;0.20;;;;;;;;;;4180480;28;20115;-41
2021/12/09 02:47:08;;;;;;;0.45;0.10;;;;;;;;;;4180669;28;20049;-42
2021/12/09 02:49:14;;;;;;;0.28;0.28;;;;;;;;;;4180278;28;20374;-41
2021/12/09 02:51:16;;;;;;;0.20;0.15;;;;;;;;;;4180757;28;20052;-42
2021/12/09 02:53:17;;;;;;;0.20;0.20;;;;;;;;;;4179662;28;20052;-41
2021/12/09 02:55:18;;;;;;;0.47;0.20;;;;;;;;;;4180342;28;20057;-41
2021/12/09 02:57:19;;;;;;;0.45;0.30;;;;;;;;;;4180355;28;20052;-41
2021/12/09 02:59:20;;;;;;;0.10;0.10;;;;;;;;;;4180505;28;20075;-39
2021/12/09 03:01:23;;;;;;;0.10;0.10;;;;;;;;;;4180524;28;20206;-41
2021/12/09 03:03:24;;;;;;;0.38;0.20;;;;;;;;;;4180243;28;20045;-41
2021/12/09 03:05:25;;;;;;;0.20;0.20;;;;;;;;;;4183637;28;20053;-42
2021/12/09 03:07:31;;;;;;;0.40;0.20;;;;;;;;;;4183560;28;20053;-38
2021/12/09 03:09:32;;;;;;;0.30;0.30;;;;;;;;;;4182968;28;20394;-41
2021/12/09 03:11:34;;;;;;;0.25;0.25;;;;;;;;;;4183665;28;20044;-41
2021/12/09 03:13:36;;;;;;;0.40;0.20;;;;;;;;;;4183302;28;20375;-41
2021/12/09 03:15:37;;;;;;;0.17;0.17;;;;;;;;;;4197242;28;20052;-42
2021/12/09 03:17:39;;;;;;;0.20;0.20;;;;;;;;;;4200009;28;20189;-42
2021/12/09 03:19:40;;;;;;;0.50;0.22;;;;;;;;;;4199807;28;20485;-41
2021/12/09 03:21:42;;;;;;;0.85;0.20;;;;;;;;;;4199529;28;20102;-40
2021/12/09 03:23:43;;;;;;;0.47;0.20;;;;;;;;;;4199424;28;20044;-39
2021/12/09 03:25:45;;;;;;;0.32;0.20;;;;;;;;;;4199685;28;20067;-39
2021/12/09 03:27:47;;;;;;;0.75;0.30;;;;;;;;;;4198235;28;20125;-41
2021/12/09 03:29:48;;;;;;;0.30;0.20;;;;;;;;;;4199605;28;20128;-41
2021/12/09 03:31:50;;;;;;;0.30;0.28;;;;;;;;;;4199885;28;20052;-41
2021/12/09 03:33:51;;;;;;;0.40;0.30;;;;;;;;;;4199472;28;20377;-40
2021/12/09 03:35:56;;;;;;;0.10;0.10;;;;;;;;;;4199559;28;20101;-42
2021/12/09 03:37:58;;;;;;;0.43;0.30;;;;;;;;;;4199110;28;20524;-40
2021/12/09 03:39:59;;;;;;;0.65;0.20;;;;;;;;;;4199534;28;20098;-42
2021/12/09 03:42:02;;;;;;;0.30;0.20;;;;;;;;;;4199548;28;20377;-40
2021/12/09 03:44:03;;;;;;;0.10;0.10;;;;;;;;;;4199347;28;20382;-40
2021/12/09 03:46:04;;;;;;;0.20;0.10;;;;;;;;;;4199478;28;20049;-40
2021/12/09 03:48:05;;;;;;;0.10;0.10;;;;;;;;;;4197939;28;20500;-41
2021/12/09 03:50:08;;;;;;;0.82;0.30;;;;;;;;;;4198028;28;20094;-40
2021/12/09 03:52:10;;;;;;;0.20;0.17;;;;;;;;;;4199288;28;20052;-40
2021/12/09 03:54:12;;;;;;;0.22;0.20;;;;;;;;;;4198909;28;20056;-41
2021/12/09 03:56:12;;;;;;;0.30;0.20;;;;;;;;;;4199381;28;20063;-41
2021/12/09 03:58:14;;;;;;;0.30;0.20;;;;;;;;;;4199132;28;20055;-40
2021/12/09 04:00:15;;;;;;;0.63;0.20;;;;;;;;;;4199164;28;20056;-40
2021/12/09 04:02:16;;;;;;;0.10;0.10;;;;;;;;;;4199130;28;20052;-39
2021/12/09 04:04:17;;;;;;;0.30;0.17;;;;;;;;;;4197638;28;20087;-40
2021/12/09 04:06:18;;;;;;;0.40;0.40;;;;;;;;;;4199108;28;20105;-41
2021/12/09 04:08:21;;;;;;;0.35;0.25;;;;;;;;;;4198746;28;20114;-40
2021/12/09 04:10:22;;;;;;;0.28;0.20;;;;;;;;;;4197813;28;20459;-40
2021/12/09 04:12:23;;;;;;;0.52;0.20;;;;;;;;;;4199241;28;20060;-43
2021/12/09 04:14:24;;;;;;;0.32;0.20;;;;;;;;;;4198473;28;20045;-42
2021/12/09 04:16:25;;;;;;;0.20;0.20;;;;;;;;;;4198889;28;20381;-40
2021/12/09 04:18:26;;;;;;;0.55;0.20;;;;;;;;;;4199125;28;20045;-40
2021/12/09 04:20:27;;;;;;;0.10;0.10;;;;;;;;;;4198636;28;20055;-38
2021/12/09 04:22:28;;;;;;;0.50;0.30;;;;;;;;;;4198754;28;20056;-41
2021/12/09 04:24:29;;;;;;;0.50;0.17;;;;;;;;;;4198345;28;20048;-41
2021/12/09 04:26:30;;;;;;;0.30;0.25;;;;;;;;;;4198755;28;20055;-41
2021/12/09 04:28:31;;;;;;;0.85;0.20;;;;;;;;;;4198730;28;20066;-41
2021/12/09 04:30:33;;;;;;;0.52;0.30;;;;;;;;;;4199021;28;20052;-39
2021/12/09 04:32:34;;;;;;;0.43;0.20;;;;;;;;;;4198589;28;20052;-41
2021/12/09 04:34:35;;;;;;;0.20;0.10;;;;;;;;;;4198834;28;20101;-42
2021/12/09 04:36:38;;;;;;;0.30;0.20;;;;;;;;;;4198693;28;20052;-39
2021/12/09 04:38:39;;;;;;;0.20;0.10;;;;;;;;;;4198046;28;20378;-39
2021/12/09 04:40:41;;;;;;;0.20;0.20;;;;;;;;;;4197913;28;20060;-40
2021/12/09 04:42:42;;;;;;;0.70;0.20;;;;;;;;;;4198123;28;20552;-43
2021/12/09 04:44:44;;;;;;;0.35;0.10;;;;;;;;;;4198484;28;20125;-39
2021/12/09 04:46:45;;;;;;;0.10;0.10;;;;;;;;;;4198422;28;20435;-40
2021/12/09 04:48:46;;;;;;;0.10;0.10;;;;;;;;;;4198455;28;20048;-39
2021/12/09 04:50:48;;;;;;;0.50;0.20;;;;;;;;;;4197195;28;20082;-41
2021/12/09 04:52:50;;;;;;;0.30;0.20;;;;;;;;;;4198150;28;20052;-42
2021/12/09 04:54:51;;;;;;;0.70;0.32;;;;;;;;;;4197429;28;20053;-42
2021/12/09 04:56:52;;;;;;;0.57;0.17;;;;;;;;;;4198266;28;20126;-42
2021/12/09 04:58:53;;;;;;;0.10;0.10;;;;;;;;;;4198134;28;20484;-41
2021/12/09 05:00:56;;;;;;;0.17;0.10;;;;;;;;;;4198464;28;20133;-40
2021/12/09 05:03:09;;;;;;;0.45;0.17;;;;;;;;;;4197854;28;20091;-42
2021/12/09 05:05:11;;;;;;;0.22;0.15;;;;;;;;;;4198287;28;20052;-40
2021/12/09 05:07:12;;;;;;;0.20;0.20;;;;;;;;;;4198167;28;20378;-42
2021/12/09 05:09:17;;;;;;;0.30;0.20;;;;;;;;;;4197566;28;20095;-42
2021/12/09 05:13:38;;;;;;;0.50;0.35;;;;;;;;;;4197930;28;20091;-41
2021/12/09 05:15:39;;;;;;;0.38;0.30;;;;;;;;;;4196775;28;20056;-41
2021/12/09 05:17:40;;;;;;;0.40;0.20;;;;;;;;;;4197972;28;20101;-41
2021/12/09 05:19:42;;;;;;;0.20;0.20;;;;;;;;;;4197965;28;20216;-41
2021/12/09 05:21:43;;;;;;;0.30;0.17;;;;;;;;;;4197540;28;20389;-40
2021/12/09 05:23:44;;;;;;;0.45;0.10;;;;;;;;;;4197270;28;20081;-42
2021/12/09 05:25:45;;;;;;;0.30;0.20;;;;;;;;;;4197749;28;20077;-40
2021/12/09 05:27:48;;;;;;;0.85;0.32;;;;;;;;;;4197222;28;20049;-42
2021/12/09 05:30:03;;;;;;;0.65;0.30;;;;;;;;;;4197569;28;20049;-40
2021/12/09 05:32:08;;;;;;;0.65;0.30;;;;;;;;;;4197572;28;20381;-40
2021/12/09 05:34:09;;;;;;;0.20;0.20;;;;;;;;;;4197623;28;20078;-42
2021/12/09 05:36:10;;;;;;;0.40;0.10;;;;;;;;;;4197695;28;20350;-40
2021/12/09 05:38:11;;;;;;;0.57;0.30;;;;;;;;;;4197343;28;20048;-41
2021/12/09 05:40:12;;;;;;;0.22;0.20;;;;;;;;;;4197522;28;20189;-42
2021/12/09 05:42:15;;;;;;;0.70;0.50;;;;;;;;;;4197725;28;20049;-43
2021/12/09 05:44:16;;;;;;;0.40;0.30;;;;;;;;;;4197229;28;20052;-40
2021/12/09 05:46:17;;;;;;;0.43;0.30;;;;;;;;;;4197515;28;20083;-42
2021/12/09 05:48:18;;;;;;;0.17;0.17;;;;;;;;;;4197077;28;20155;-40
2021/12/09 05:50:19;;;;;;;0.90;0.30;;;;;;;;;;4197744;28;20041;-40
2021/12/09 05:52:20;;;;;;;0.65;0.40;;;;;;;;;;4197652;28;20108;-41
2021/12/09 05:54:21;;;;;;;2.58;0.30;;;;;;;;;;4196941;28;20047;-42
2021/12/09 05:56:22;;;;;;;0.30;0.30;;;;;;;;;;4197365;28;20091;-40
2021/12/09 05:58:24;;;;;;;0.73;0.40;;;;;;;;;;4197223;28;20048;-42
2021/12/09 06:00:24;;;;;;;0.32;0.25;;;;;;;;;;4196720;28;20386;-39
2021/12/09 06:02:26;;;;;;;0.65;0.40;;;;;;;;;;4197137;28;20049;-41
2021/12/09 06:04:27;;;;;;;0.80;0.40;;;;;;;;;;4197169;28;20377;-42
2021/12/09 06:06:29;;;;;;;1.55;0.50;;;;;;;;;;4197554;28;20056;-41
2021/12/09 06:08:30;;;;;;;0.52;0.45;;;;;;;;;;4196727;28;20052;-42
2021/12/09 06:10:33;;;;;;;0.80;0.35;;;;;;;;;;4197497;28;20090;-41
2021/12/09 06:12:36;;;;;;;0.85;0.43;;;;;;;;;;4190642;28;20098;-42
2021/12/09 06:14:37;;;;;;;0.55;0.40;;;;;;;;;;4193804;28;20051;-42
2021/12/09 06:16:38;;;;;;;0.57;0.40;;;;;;;;;;4184268;28;20417;-41
2021/12/09 06:18:39;;;;;;;1.83;0.50;;;;;;;;;;4194992;28;20562;-39
2021/12/09 06:20:40;;;;;;;0.50;0.30;;;;;;;;;;4198917;28;20047;-40
2021/12/09 06:22:41;;;;;;;0.30;0.30;;;;;;;;;;4202548;28;20131;-43
2021/12/09 06:24:44;;;;;;;0.82;0.40;;;;;;;;;;4200669;28;20495;-43
2021/12/09 06:26:45;;;;;;;0.30;0.30;;;;;;;;;;4213459;28;20052;-40
2021/12/09 06:28:46;;;;;;;0.43;0.40;;;;;;;;;;4213279;28;20052;-41
2021/12/09 06:30:48;;;;;;;0.50;0.40;;;;;;;;;;4213344;28;20047;-39
2021/12/09 06:32:49;;;;;;;0.95;0.50;;;;;;;;;;4213196;28;20047;-42
2021/12/09 06:34:50;;;;;;;0.50;0.50;;;;;;;;;;4213558;28;20056;-40
2021/12/09 06:36:51;;;;;;;0.38;0.32;;;;;;;;;;4213035;28;20055;-42
2021/12/09 06:38:52;;;;;;;0.40;0.40;;;;;;;;;;4212146;28;20059;-40
2021/12/09 06:40:53;;;;;;;1.65;0.30;;;;;;;;;;4215455;28;20116;-41
2021/12/09 06:42:54;;;;;;;0.40;0.30;;;;;;;;;;4215947;28;20116;-41
2021/12/09 06:44:55;;;;;;;0.80;0.40;;;;;;;;;;4216191;28;20047;-43
2021/12/09 06:46:57;;;;;;;0.35;0.35;;;;;;;;;;4216845;28;20086;-40
2021/12/09 06:48:58;;;;;;;0.30;0.30;;;;;;;;;;4213037;28;20044;-42
2021/12/09 06:51:01;;;;;;;0.70;0.50;;;;;;;;;;4193785;28;20090;-42
2021/12/09 06:53:03;;;;;;;1.50;0.50;;;;;;;;;;4194079;28;20090;-40
2021/12/09 06:55:06;;;;;;;0.60;0.55;;;;;;;;;;4194000;28;20045;-39
2021/12/09 06:57:07;;;;;;;0.73;0.40;;;;;;;;;;4194988;28;20048;-40
2021/12/09 06:59:08;;;;;;;0.40;0.30;;;;;;;;;;4197374;28;20132;-41
2021/12/09 07:01:09;;;;;;;0.63;0.50;;;;;;;;;;4197763;28;20400;-39
2021/12/09 07:03:11;;;;;;;0.85;0.40;;;;;;;;;;4207337;28;20086;-42
2021/12/09 07:05:13;;;;;;;0.57;0.50;;;;;;;;;;4198888;28;20049;-40
2021/12/09 07:07:14;;;;;;;0.55;0.40;;;;;;;;;;4197553;28;20036;-42
2021/12/09 07:09:15;;;;;;;0.30;0.28;;;;;;;;;;4199652;28;20094;-42
2021/12/09 07:11:17;;;;;;;0.68;0.55;;;;;;;;;;4193370;28;20529;-42
2021/12/09 07:13:18;;;;;;;0.63;0.38;;;;;;;;;;4197636;28;20048;-43
2021/12/09 07:15:20;;;;;;;0.60;0.50;;;;;;;;;;4197159;28;20098;-43
2021/12/09 07:17:21;;;;;;;1.42;0.35;;;;;;;;;;4196988;28;20048;-41
2021/12/09 07:19:22;;;;;;;0.80;0.38;;;;;;;;;;4199635;28;20056;-43
2021/12/09 07:21:22;;;;;;;1.65;0.40;;;;;;;;;;4195891;28;20510;-43
2021/12/09 07:23:23;;;;;;;0.85;0.60;;;;;;;;;;4199113;28;20107;-41
2021/12/09 07:25:26;;;;;;;0.60;0.50;;;;;;;;;;4197248;28;20877;-40
2021/12/09 07:27:27;;;;;;;0.50;0.50;;;;;;;;;;4189381;28;20053;-42
2021/12/09 07:29:28;;;;;;;0.43;0.40;;;;;;;;;;4201111;28;20078;-43
2021/12/09 07:31:30;;;;;;;0.93;0.40;;;;;;;;;;4205608;28;20072;-43
2021/12/09 07:33:31;;;;;;;1.02;0.50;;;;;;;;;;4188937;28;20117;-40
2021/12/09 07:35:32;;;;;;;1.05;0.55;;;;;;;;;;4203281;28;20044;-44
2021/12/09 07:37:33;;;;;;;0.88;0.60;;;;;;;;;;4193646;28;20110;-43
2021/12/09 07:39:34;;;;;;;0.50;0.45;;;;;;;;;;4192756;28;20052;-40
2021/12/09 07:41:36;;;;;;;0.68;0.50;;;;;;;;;;4194405;28;20324;-40
2021/12/09 07:43:37;;;;;;;1.17;0.55;;;;;;;;;;4203122;28;20052;-42
2021/12/09 07:45:38;;;;;;;2.17;0.80;;;;;;;;;;4191418;28;20144;-43
2021/12/09 07:47:39;;;;;;;0.98;0.50;;;;;;;;;;4189639;28;20429;-40
2021/12/09 07:49:41;;;;;;;0.90;0.70;;;;;;;;;;4203025;28;20493;-41
2021/12/09 07:51:42;;;;;;;1.42;0.90;;;;;;;;;;4192697;28;20048;-41
2021/12/09 07:53:43;;;;;;;1.08;0.60;;;;;;;;;;4192840;28;20389;-41
2021/12/09 07:55:44;;;;;;;0.60;0.45;;;;;;;;;;4195917;28;20044;-40
2021/12/09 07:57:46;;;;;;;0.40;0.40;;;;;;;;;;4193909;28;20049;-42
2021/12/09 07:59:47;;;;;;;1.30;0.65;;;;;;;;;;4190985;28;20059;-42
2021/12/09 08:01:48;;;;;;;1.40;0.55;;;;;;;;;;4182850;28;20048;-46
2021/12/09 08:03:49;;;;;;;0.60;0.50;;;;;;;;;;4186940;28;20090;-41
2021/12/09 08:05:50;;;;;;;2.47;0.60;;;;;;;;;;4192747;28;20044;-41
2021/12/09 08:07:52;;;;;;;1.20;0.52;;;;;;;;;;4194231;28;20104;-42
2021/12/09 08:09:53;;;;;;;1.67;0.80;;;;;;;;;;4194490;28;20056;-41
2021/12/09 08:11:54;;;;;;;1.13;0.60;;;;;;;;;;4193497;28;20097;-41
2021/12/09 08:13:55;;;;;;;0.90;0.50;;;;;;;;;;4197704;28;20109;-42
2021/12/09 08:15:56;;;;;;;1.15;0.60;;;;;;;;;;4194937;28;20052;-41
2021/12/09 08:18:01;;;;;;;2.55;0.50;;;;;;;;;;4185657;28;20073;-41
2021/12/09 08:20:05;;;;;;;0.50;0.45;;;;;;;;;;4191659;28;20053;-38
2021/12/09 08:22:06;;;;;;;0.70;0.52;;;;;;;;;;4194286;28;20057;-39
2021/12/09 08:24:08;;;;;;;1.00;0.70;;;;;;;;;;4191438;28;20056;-39
2021/12/09 08:26:09;;;;;;;1.92;0.40;;;;;;;;;;4190981;28;20052;-40
2021/12/09 08:28:10;;;;;;;0.85;0.60;;;;;;;;;;4190365;28;20473;-41
2021/12/09 08:30:12;;;;;;;2.13;0.57;;;;;;;;;;4189025;28;20171;-41
2021/12/09 08:32:13;;;;;;;1.20;0.60;;;;;;;;;;4191556;28;20052;-41
2021/12/09 08:34:15;;;;;;;1.40;0.60;;;;;;;;;;4190355;28;20132;-41
2021/12/09 08:36:16;;;;;;;2.05;0.50;;;;;;;;;;4191422;28;20044;-39
2021/12/09 08:38:18;;;;;;;1.45;0.57;;;;;;;;;;4193693;28;20480;-40
2021/12/09 08:40:20;;;;;;;1.00;0.70;;;;;;;;;;4192342;28;20048;-40
2021/12/09 08:42:21;;;;;;;1.05;0.68;;;;;;;;;;4190282;28;20052;-39
2021/12/09 08:44:22;;;;;;;1.15;0.57;;;;;;;;;;4195841;28;20056;-42
2021/12/09 08:46:23;;;;;;;2.45;0.57;;;;;;;;;;4193003;28;20048;-41
2021/12/09 08:48:25;;;;;;;1.27;0.63;;;;;;;;;;4190703;28;20093;-42
2021/12/09 08:50:32;;;;;;;1.58;0.65;;;;;;;;;;4190507;28;20049;-41
2021/12/09 08:52:34;;;;;;;0.70;0.60;;;;;;;;;;4193138;28;20052;-42
2021/12/09 08:54:35;;;;;;;1.58;0.50;;;;;;;;;;4187784;28;20052;-41
2021/12/09 08:56:37;;;;;;;0.55;0.40;;;;;;;;;;4194915;28;20056;-41
2021/12/09 08:58:38;;;;;;;0.85;0.60;;;;;;;;;;4193967;28;20100;-42
2021/12/09 09:00:39;;;;;;;1.42;0.50;;;;;;;;;;4184629;28;20060;-41
2021/12/09 09:02:41;;;;;;;1.48;0.77;;;;;;;;;;4186738;28;20057;-43
2021/12/09 09:04:42;;;;;;;0.50;0.50;;;;;;;;;;4186467;28;20048;-40
2021/12/09 09:06:50;;;;;;;1.23;0.57;;;;;;;;;;4188642;28;20090;-41
2021/12/09 09:08:56;;;;;;;0.60;0.45;;;;;;;;;;4181323;28;20561;-42
2021/12/09 09:10:57;;;;;;;1.50;0.63;;;;;;;;;;4183482;28;20048;-43
2021/12/09 09:12:59;;;;;;;0.73;0.47;;;;;;;;;;4184624;28;20052;-41
2021/12/09 09:15:00;;;;;;;1.40;0.70;;;;;;;;;;4188441;28;20461;-40
2021/12/09 09:17:01;;;;;;;1.05;0.60;;;;;;;;;;4190167;28;20052;-41
2021/12/09 09:19:02;;;;;;;0.80;0.65;;;;;;;;;;4186026;28;20784;-41
2021/12/09 09:21:04;;;;;;;3.45;0.57;;;;;;;;;;4184400;28;20076;-41
2021/12/09 09:23:09;;;;;;;0.82;0.40;;;;;;;;;;4186812;28;20095;-42
2021/12/09 09:25:19;;;;;;;1.38;0.55;;;;;;;;;;4189723;28;20075;-38
2021/12/09 09:27:20;;;;;;;1.35;0.80;;;;;;;;;;4187393;28;20048;-41
2021/12/09 09:29:22;;;;;;;3.08;0.60;;;;;;;;;;4189474;28;20045;-40
2021/12/09 09:31:26;;;;;;;1.00;0.70;;;;;;;;;;4185222;28;20049;-39
2021/12/09 09:33:29;;;;;;;2.35;0.60;;;;;;;;;;4183005;28;20390;-42
2021/12/09 09:35:30;;;;;;;1.02;0.70;;;;;;;;;;4188106;28;20382;-42
2021/12/09 09:37:31;;;;;;;1.55;0.73;;;;;;;;;;4188468;28;20044;-42
2021/12/09 09:39:33;;;;;;;1.30;0.82;;;;;;;;;;4186752;28;20140;-41
2021/12/09 09:41:34;;;;;;;1.17;0.77;;;;;;;;;;4189512;28;20155;-39
2021/12/09 09:45:47;;;;;;;1.38;0.73;;;;;;;;;;4193812;28;20405;-42
2021/12/09 09:47:48;;;;;;;0.95;0.50;;;;;;;;;;4190916;28;20044;-41
2021/12/09 09:49:49;;;;;;;3.15;0.50;;;;;;;;;;4187153;28;20148;-40
2021/12/09 09:51:51;;;;;;;1.60;0.68;;;;;;;;;;4191000;28;21481;-41
2021/12/09 09:53:53;;;;;;;0.90;0.40;;;;;;;;;;4182268;28;20051;-41
2021/12/09 09:55:54;;;;;;;0.90;0.70;;;;;;;;;;4188279;28;20048;-43
2021/12/09 09:57:55;;;;;;;1.08;0.50;;;;;;;;;;4189051;28;20389;-43
2021/12/09 09:59:56;;;;;;;0.90;0.43;;;;;;;;;;4188830;28;20458;-42
2021/12/09 10:01:57;;;;;;;2.45;0.65;;;;;;;;;;4180559;28;20105;-43
2021/12/09 10:04:10;;;;;;;1.25;0.52;;;;;;;;;;4180140;28;20429;-42
2021/12/09 10:06:12;;;;;;;1.67;0.90;;;;;;;;;;4186582;28;20114;-43
2021/12/09 10:08:14;;;;;;;0.55;0.45;;;;;;;;;;4184960;28;20052;-43
2021/12/09 10:10:15;;;;;;;1.17;0.60;;;;;;;;;;4186147;28;20071;-43
2021/12/09 10:12:16;;;;;;;0.95;0.63;;;;;;;;;;4192754;28;20447;-43
2021/12/09 10:14:43;;;;;;;0.55;0.40;;;;;;;;;;4185434;28;20074;-43
2021/12/09 10:16:45;;;;;;;1.58;0.50;;;;;;;;;;4181387;28;20103;-42
2021/12/09 10:18:48;;;;;;;0.88;0.50;;;;;;;;;;4186452;28;20102;-41
2021/12/09 10:20:51;;;;;;;1.80;0.85;;;;;;;;;;4189172;28;20109;-43
2021/12/09 10:22:53;;;;;;;0.82;0.50;;;;;;;;;;4192386;28;20052;-43
2021/12/09 10:24:54;;;;;;;1.10;0.70;;;;;;;;;;4175265;28;20087;-44
2021/12/09 10:26:56;;;;;;;1.33;0.80;;;;;;;;;;4179282;28;20053;-43
2021/12/09 10:28:57;;;;;;;1.15;0.60;;;;;;;;;;4165744;28;20451;-44
2021/12/09 10:31:09;;;;;;;0.73;0.50;;;;;;;;;;4187252;28;20106;-43
2021/12/09 10:33:12;;;;;;;1.35;0.75;;;;;;;;;;4185643;28;20113;-42
2021/12/09 10:35:15;;;;;;;1.13;0.68;;;;;;;;;;4184925;28;20049;-43
2021/12/09 10:37:21;;;;;;;1.40;1.30;;;;;;;;;;4187899;28;20459;-43
2021/12/09 10:39:36;;;;;;;1.10;0.90;;;;;;;;;;4168368;28;20064;-43
2021/12/09 10:41:37;;;;;;;1.73;0.65;;;;;;;;;;4184182;28;20128;-43
2021/12/09 10:43:48;;;;;;;6.45;1.20;;;;;;;;;;4187145;28;20063;-44
2021/12/09 10:45:49;;;;;;;2.97;0.77;;;;;;;;;;4185547;28;20045;-43
2021/12/09 10:48:04;;;;;;;0.70;0.50;;;;;;;;;;4186211;28;20052;-43
2021/12/09 10:50:12;;;;;;;1.67;0.85;;;;;;;;;;4199849;28;20056;-43
2021/12/09 10:52:36;;;;;;;2.08;0.85;;;;;;;;;;4183235;28;20052;-45
2021/12/09 10:54:38;;;;;;;4.60;0.93;;;;;;;;;;4181901;28;20063;-43
2021/12/09 10:56:39;;;;;;;1.58;0.80;;;;;;;;;;4186032;28;20110;-43
2021/12/09 10:58:41;;;;;;;0.88;0.63;;;;;;;;;;4190213;28;20057;-43
2021/12/09 11:00:42;;;;;;;3.33;0.88;;;;;;;;;;4188091;28;20533;-44
2021/12/09 11:03:00;;;;;;;1.98;0.70;;;;;;;;;;4188158;28;20056;-43
2021/12/09 11:05:04;;;;;;;5.72;0.85;;;;;;;;;;4193133;28;20048;-44
2021/12/09 11:07:20;;;;;;;2.15;0.80;;;;;;;;;;4184826;28;20093;-44
2021/12/09 11:09:23;;;;;;;2.50;1.02;;;;;;;;;;4186494;28;20053;-42
2021/12/09 11:11:45;;;;;;;1.60;0.93;;;;;;;;;;4187292;28;20040;-43
2021/12/09 11:13:54;;;;;;;2.80;1.05;;;;;;;;;;4187602;28;20048;-42
2021/12/09 11:15:57;;;;;;;1.35;0.60;;;;;;;;;;4183082;28;20056;-43
2021/12/09 11:18:06;;;;;;;1.55;0.77;;;;;;;;;;4191111;28;20484;-44
2021/12/09 11:20:08;;;;;;;1.58;0.77;;;;;;;;;;4189106;28;20106;-34
2021/12/09 11:22:12;;;;;;;1.08;0.80;;;;;;;;;;4191090;28;20125;-34
2021/12/09 11:24:15;;;;;;;2.05;0.80;;;;;;;;;;4190159;28;20079;-42
2021/12/09 11:26:25;;;;;;;1.10;0.80;;;;;;;;;;4201892;28;20048;-32
2021/12/09 11:28:27;;;;;;;0.90;0.70;;;;;;;;;;4192840;28;20051;-33
2021/12/09 11:30:31;;;;;;;1.02;0.80;;;;;;;;;;4190782;28;20049;-33
2021/12/09 11:32:48;;;;;;;1.50;0.90;;;;;;;;;;4186874;28;21440;-33
2021/12/09 11:34:56;;;;;;;1.25;0.75;;;;;;;;;;4195732;28;20044;-33
2021/12/09 11:37:03;;;;;;;1.80;0.80;;;;;;;;;;4192060;28;20105;-34
2021/12/09 11:39:07;;;;;;;1.95;0.90;;;;;;;;;;4199279;28;20325;-33
2021/12/09 11:41:27;;;;;;;0.82;0.50;;;;;;;;;;4191785;28;20060;-44
2021/12/09 11:43:29;;;;;;;1.27;0.63;;;;;;;;;;4191055;28;20053;-41
2021/12/09 11:45:33;;;;;;;1.20;0.60;;;;;;;;;;4186129;28;20113;-43
2021/12/09 11:47:37;;;;;;;0.95;0.75;;;;;;;;;;4189591;28;21042;-43
2021/12/09 11:49:38;;;;;;;1.25;0.63;;;;;;;;;;4183402;28;20067;-43
2021/12/09 11:51:39;;;;;;;0.88;0.73;;;;;;;;;;4185703;28;20059;-43
2021/12/09 11:53:43;;;;;;;0.77;0.60;;;;;;;;;;4186241;28;20052;-42
2021/12/09 11:56:01;;;;;;;1.75;0.60;;;;;;;;;;4185721;28;20052;-41
2021/12/09 11:58:09;;;;;;;1.67;0.70;;;;;;;;;;4182420;28;20052;-44
2021/12/09 12:07:59;;;;;;;;;;;;;;;;;;4181722;28;20500;-42
2021/12/09 12:13:11;;;;;;;0.70;0.50;;;;;;;;;;4192682;28;19973;-40
2021/12/09 12:14:48;;;;;;;1.20;0.60;;;;;;;;;;4180585;28;20431;-42
2021/12/09 12:19:12;;;;;;;0.50;0.50;;;;;;;;;;4189832;28;20117;-43
2021/12/09 12:24:34;;;;;;;0.70;0.40;;;;;;;;;;4189537;28;20149;-43
2021/12/09 12:26:24;;;;;;;1.02;0.55;;;;;;;;;;4189965;28;20094;-44
2021/12/09 12:29:02;;;;;;;0.88;0.70;;;;;;;;;;4189390;28;20052;-42
2021/12/09 12:33:51;;;;;;;1.15;0.50;;;;;;;;;;4186308;28;20052;-43
2021/12/09 12:35:54;;;;;;;2.40;0.80;;;;;;;;;;4182386;28;20057;-43
2021/12/09 12:38:11;;;;;;;0.98;0.52;;;;;;;;;;4180837;28;20083;-42